Time;durP1;ratioP1;P1;durP2;ratioP2;P2;SDS_P1;SDS_P2;PMS_P1;PMS_P2;Temp;Humidity;BMP_temperature;BMP_pressure;BME280_temperature;BME280_humidity;BME280_pressure;Samples;Min_cycle;Max_cycle;Signal;HPM_P1;HPM_P2
2021/05/24 00:02:05;;;;;;;7.93;3.15;;;;;;;7.67;73.82;100823.03;5029612;28;20079;-83
2021/05/24 00:04:32;;;;;;;4.10;2.17;;;;;;;7.64;74.32;100814.31;5031485;28;20049;-85
2021/05/24 00:07:03;;;;;;;2.40;2.20;;;;;;;7.60;74.34;100805.59;5026751;28;20037;-83
2021/05/24 00:09:33;;;;;;;3.83;2.50;;;;;;;7.55;74.30;100805.59;5031646;28;20077;-85
2021/05/24 00:12:11;;;;;;;4.25;2.33;;;;;;;7.54;75.06;100811.66;5051711;28;20477;-84
2021/05/24 00:14:50;;;;;;;3.70;3.33;;;;;;;7.51;75.04;100810.75;5044798;28;20045;-84
2021/05/24 00:17:25;;;;;;;3.42;2.40;;;;;;;7.48;75.54;100800.34;5043981;28;20064;-83
2021/05/24 00:20:00;;;;;;;5.95;4.35;;;;;;;7.44;75.39;100808.16;5083765;28;20064;-85
2021/05/24 00:22:50;;;;;;;4.93;2.40;;;;;;;7.39;75.94;100803.75;5038174;28;20064;-84
2021/05/24 00:25:27;;;;;;;2.95;2.40;;;;;;;7.37;75.75;100810.69;5038404;28;20779;-85
2021/05/24 00:27:57;;;;;;;4.50;2.53;;;;;;;7.33;75.63;100803.72;5067288;28;20041;-83
2021/05/24 00:30:56;;;;;;;5.38;3.00;;;;;;;7.27;76.61;100808.03;5035553;28;20044;-84
2021/05/24 00:33:27;;;;;;;1.45;1.33;;;;;;;7.24;76.13;100808.00;5052284;28;20037;-84
2021/05/24 00:35:54;;;;;;;5.85;2.67;;;;;;;7.20;76.66;100801.03;5042646;28;20181;-85
2021/05/24 00:38:33;;;;;;;3.17;2.15;;;;;;;7.18;77.45;100802.72;5068932;28;20041;-84
2021/05/24 00:41:03;;;;;;;6.40;2.70;;;;;;;7.15;77.29;100800.13;5068228;28;20037;-84
2021/05/24 00:43:31;;;;;;;3.42;2.35;;;;;;;7.10;77.21;100797.50;5053295;28;20551;-85
2021/05/24 00:46:00;;;;;;;10.93;4.25;;;;;;;7.08;77.35;100795.75;5032277;28;20099;-85
2021/05/24 00:48:29;;;;;;;7.10;2.75;;;;;;;7.05;77.76;100790.50;5055305;28;20044;-85
2021/05/24 00:50:56;;;;;;;3.03;2.08;;;;;;;7.02;77.60;100786.13;5080891;28;20060;-84
2021/05/24 00:53:23;;;;;;;2.85;2.03;;;;;;;6.99;77.68;100782.63;5029567;28;20056;-85
2021/05/24 00:55:50;;;;;;;2.30;2.10;;;;;;;6.95;77.97;100786.97;5058147;28;20051;-85
2021/05/24 00:58:16;;;;;;;5.55;2.60;;;;;;;6.93;77.68;100773.06;5066292;28;20049;-85
2021/05/24 01:00:48;;;;;;;16.85;2.42;;;;;;;6.90;77.78;100775.66;5032413;28;20057;-85
2021/05/24 01:03:16;;;;;;;4.80;2.42;;;;;;;6.87;77.68;100775.59;5029750;28;20099;-85
2021/05/24 01:05:45;;;;;;;1.90;1.80;;;;;;;6.85;77.94;100775.59;5059169;28;20067;-84
2021/05/24 01:08:13;;;;;;;2.22;2.03;;;;;;;6.84;78.13;100778.19;5046510;28;20407;-85
2021/05/24 01:10:42;;;;;;;3.90;2.42;;;;;;;6.82;77.94;100772.97;5064815;28;20056;-85
2021/05/24 01:13:16;;;;;;;4.45;2.30;;;;;;;6.75;78.45;100761.66;5041717;28;20044;-84
2021/05/24 01:15:45;;;;;;;2.17;2.05;;;;;;;6.77;78.46;100766.84;5054995;28;20103;-85
2021/05/24 01:18:11;;;;;;;5.45;2.55;;;;;;;6.75;78.14;100771.16;5048264;28;20231;-84
2021/05/24 01:20:39;;;;;;;1.58;1.40;;;;;;;6.72;78.60;100760.75;5034916;28;20103;-86
2021/05/24 01:23:10;;;;;;;5.85;1.98;;;;;;;6.68;78.46;100762.44;5034531;28;20049;-85
2021/05/24 01:25:46;;;;;;;4.30;2.28;;;;;;;6.66;79.09;100751.13;5029443;28;20159;-84
2021/05/24 01:28:19;;;;;;;2.78;1.80;;;;;;;6.65;79.50;100753.72;5047630;28;20130;-85
2021/05/24 01:30:45;;;;;;;2.20;2.00;;;;;;;6.64;79.09;100755.47;5041872;28;20033;-85
2021/05/24 01:33:13;;;;;;;2.85;1.60;;;;;;;6.64;79.30;100755.47;5031942;28;20041;-84
2021/05/24 01:35:49;;;;;;;3.33;1.90;;;;;;;6.64;78.98;100754.63;5045793;28;20689;-84
2021/05/24 01:38:17;;;;;;;3.10;1.65;;;;;;;6.65;79.12;100746.81;5062744;28;20068;-84
2021/05/24 01:40:48;;;;;;;9.20;3.33;;;;;;;6.66;79.14;100740.72;5051288;28;20075;-84
2021/05/24 01:43:16;;;;;;;4.32;1.80;;;;;;;6.67;78.91;100749.44;5079001;28;20045;-85
2021/05/24 01:45:44;;;;;;;1.85;1.42;;;;;;;6.66;78.82;100745.06;5043254;28;20041;-84
2021/05/24 01:48:10;;;;;;;2.00;1.90;;;;;;;6.67;78.76;100737.28;5022466;28;20096;-84
2021/05/24 01:50:39;;;;;;;2.00;1.48;;;;;;;6.67;78.69;100739.88;5050614;28;20051;-84
2021/05/24 01:53:08;;;;;;;3.13;1.70;;;;;;;6.68;78.24;100741.63;5063003;28;20144;-85
2021/05/24 01:55:34;;;;;;;2.95;2.65;;;;;;;6.66;78.37;100727.72;5073901;28;20895;-86
2021/05/24 01:58:05;;;;;;;18.70;9.57;;;;;;;6.67;78.09;100733.81;5062092;28;21327;-84
2021/05/24 02:00:37;;;;;;;4.32;2.17;;;;;;;6.67;77.92;100736.41;5050875;28;20061;-85
2021/05/24 02:03:05;;;;;;;2.28;1.90;;;;;;;6.71;77.86;100732.97;5044955;28;20131;-84
2021/05/24 02:05:35;;;;;;;1.45;1.35;;;;;;;6.73;77.53;100744.28;5055900;28;20048;-85
2021/05/24 02:08:09;;;;;;;2.65;1.20;;;;;;;6.71;77.73;100730.38;5046414;28;20136;-85
2021/05/24 02:10:39;;;;;;;1.80;1.30;;;;;;;6.72;77.28;100732.13;5067070;28;20045;-85
2021/05/24 02:13:08;;;;;;;3.35;1.33;;;;;;;6.72;77.21;100727.78;5043335;28;20119;-85
2021/05/24 02:15:40;;;;;;;2.90;1.25;;;;;;;6.72;77.51;100725.19;5062150;28;20067;-84
2021/05/24 02:18:07;;;;;;;2.03;1.20;;;;;;;6.74;77.25;100731.28;5032317;28;20048;-84
2021/05/24 02:20:36;;;;;;;1.38;1.27;;;;;;;6.76;76.92;100723.47;5046629;28;20470;-85
2021/05/24 02:23:06;;;;;;;2.85;1.73;;;;;;;6.78;77.35;100726.97;5051420;28;20053;-85
2021/05/24 02:25:35;;;;;;;2.40;1.38;;;;;;;6.80;77.03;100725.25;5075551;28;20049;-85
2021/05/24 02:28:01;;;;;;;3.20;1.90;;;;;;;6.82;76.58;100733.94;5042370;28;20047;-84
2021/05/24 02:30:33;;;;;;;1.85;1.30;;;;;;;6.82;76.68;100718.34;5059882;28;20049;-83
2021/05/24 02:33:05;;;;;;;6.07;2.20;;;;;;;6.85;76.53;100728.75;5027160;28;20403;-84
2021/05/24 02:35:38;;;;;;;2.05;1.05;;;;;;;6.84;76.63;100729.59;5043701;28;20044;-84
2021/05/24 02:38:06;;;;;;;1.70;1.60;;;;;;;6.84;76.53;100726.16;5047277;28;20057;-85
2021/05/24 02:40:34;;;;;;;2.90;1.48;;;;;;;6.84;76.38;100729.59;5032386;28;20075;-83
2021/05/24 02:43:09;;;;;;;2.15;1.23;;;;;;;6.87;76.02;100728.75;5072544;28;20045;-84
2021/05/24 02:45:37;;;;;;;1.20;1.08;;;;;;;6.90;75.77;100726.19;5059841;28;20052;-84
2021/05/24 02:48:07;;;;;;;2.55;1.20;;;;;;;6.90;75.84;100724.47;5032770;28;20048;-84
2021/05/24 02:50:34;;;;;;;2.60;1.92;;;;;;;6.89;75.95;100724.44;5050866;28;20551;-84
2021/05/24 02:53:00;;;;;;;4.57;2.40;;;;;;;6.88;75.81;100718.38;5045093;28;20044;-84
2021/05/24 02:55:27;;;;;;;4.38;1.30;;;;;;;6.84;76.02;100720.94;5027946;28;20041;-85
2021/05/24 02:57:57;;;;;;;1.15;1.05;;;;;;;6.84;76.30;100720.94;5063289;28;20041;-85
2021/05/24 03:00:27;;;;;;;5.68;1.52;;;;;;;6.83;76.01;100716.59;5032067;28;20136;-84
2021/05/24 03:02:54;;;;;;;3.20;1.15;;;;;;;6.83;75.86;100712.28;5046246;28;20057;-84
2021/05/24 03:05:23;;;;;;;2.20;1.08;;;;;;;6.82;75.79;100720.03;5045280;28;20057;-85
2021/05/24 03:07:53;;;;;;;1.05;0.73;;;;;;;6.81;76.10;100715.72;5063942;28;20045;-84
2021/05/24 03:10:31;;;;;;;1.95;0.80;;;;;;;6.78;75.81;100716.56;5046698;28;20048;-85
2021/05/24 03:13:00;;;;;;;1.95;1.25;;;;;;;6.79;75.74;100713.09;5028593;28;20385;-85
2021/05/24 03:15:32;;;;;;;2.90;0.82;;;;;;;6.82;75.66;100704.44;5056846;28;20127;-85
2021/05/24 03:18:04;;;;;;;3.72;0.95;;;;;;;6.85;75.46;100701.88;5047156;28;20507;-84
2021/05/24 03:20:30;;;;;;;1.95;1.35;;;;;;;6.90;75.16;100702.78;5057069;28;20120;-84
2021/05/24 03:22:58;;;;;;;1.80;0.70;;;;;;;6.94;75.21;100701.94;5045159;28;20072;-84
2021/05/24 03:25:28;;;;;;;2.45;1.50;;;;;;;6.96;74.86;100700.19;5076756;28;20095;-85
2021/05/24 03:27:56;;;;;;;0.98;0.93;;;;;;;6.98;75.07;100697.63;5075025;28;20058;-84
2021/05/24 03:30:23;;;;;;;2.67;1.08;;;;;;;6.99;74.90;100699.34;5027467;28;20148;-84
2021/05/24 03:32:49;;;;;;;0.80;0.70;;;;;;;7.00;74.69;100698.50;5060877;28;20049;-84
2021/05/24 03:35:15;;;;;;;4.70;1.10;;;;;;;7.00;75.14;100706.28;5043932;28;20050;-85
2021/05/24 03:37:41;;;;;;;1.08;0.98;;;;;;;7.01;74.91;100698.50;5041497;28;20132;-84
2021/05/24 03:40:11;;;;;;;2.03;0.82;;;;;;;7.05;74.67;100694.19;5045398;28;20487;-85
2021/05/24 03:42:37;;;;;;;0.95;0.65;;;;;;;7.05;74.73;100695.06;5062982;28;20323;-85
2021/05/24 03:45:08;;;;;;;1.33;0.80;;;;;;;7.06;74.68;100688.13;5057899;28;20562;-85
2021/05/24 03:47:39;;;;;;;1.25;0.90;;;;;;;7.07;74.75;100679.47;5060210;28;20571;-85
2021/05/24 03:50:08;;;;;;;2.65;0.70;;;;;;;7.09;74.87;100683.81;5051390;28;20399;-84
2021/05/24 03:52:47;;;;;;;1.88;0.90;;;;;;;7.10;74.94;100692.47;5043143;28;20051;-84
2021/05/24 03:55:23;;;;;;;0.85;0.85;;;;;;;7.13;74.88;100682.06;5031814;28;20064;-85
2021/05/24 03:57:54;;;;;;;1.52;0.70;;;;;;;7.15;74.94;100684.72;5061035;28;20336;-85
2021/05/24 04:00:21;;;;;;;2.20;0.65;;;;;;;7.16;75.00;100679.50;5084377;28;20057;-85
2021/05/24 04:02:48;;;;;;;2.17;0.90;;;;;;;7.18;75.30;100675.16;5069632;28;20055;-84
2021/05/24 04:05:18;;;;;;;2.50;0.88;;;;;;;7.20;75.48;100677.78;5080529;28;20539;-85
2021/05/24 04:07:50;;;;;;;3.17;0.95;;;;;;;7.23;75.51;100676.06;5047972;28;20041;-84
2021/05/24 04:10:19;;;;;;;1.40;0.70;;;;;;;7.26;75.39;100677.81;5049147;28;20045;-84
2021/05/24 04:12:53;;;;;;;2.35;0.65;;;;;;;7.29;75.18;100676.09;5035163;28;20100;-84
2021/05/24 04:15:20;;;;;;;1.38;0.95;;;;;;;7.33;75.01;100674.38;5048393;28;20040;-86
2021/05/24 04:17:50;;;;;;;2.28;0.85;;;;;;;7.40;74.70;100681.34;5045018;28;20049;-84
2021/05/24 04:20:18;;;;;;;3.58;1.35;;;;;;;7.45;74.77;100674.44;5050098;28;20128;-84
2021/05/24 04:22:45;;;;;;;0.88;0.88;;;;;;;7.51;74.40;100667.50;5066376;28;20052;-86
2021/05/24 04:25:13;;;;;;;1.02;0.63;;;;;;;7.58;74.27;100666.66;5033825;28;20047;-84
2021/05/24 04:27:39;;;;;;;1.92;1.02;;;;;;;7.69;73.92;100682.31;5084372;28;20048;-85
2021/05/24 04:30:10;;;;;;;0.98;0.50;;;;;;;7.79;73.69;100676.28;5063393;28;20127;-84
2021/05/24 04:32:41;;;;;;;2.10;0.75;;;;;;;7.86;73.40;100662.41;5067799;28;20141;-85
2021/05/24 04:35:09;;;;;;;0.68;0.68;;;;;;;7.91;73.07;100658.09;5049915;28;20081;-85
2021/05/24 04:37:36;;;;;;;3.47;0.70;;;;;;;7.97;72.91;100659.81;5035294;28;20128;-85
2021/05/24 04:40:08;;;;;;;0.63;0.60;;;;;;;8.06;72.82;100666.81;5039965;28;20056;-85
2021/05/24 04:42:37;;;;;;;1.48;1.38;;;;;;;8.13;72.43;100665.06;5065206;28;20103;-84
2021/05/24 04:45:04;;;;;;;2.40;0.70;;;;;;;8.21;72.76;100665.94;5051366;28;20106;-84
2021/05/24 04:47:31;;;;;;;0.80;0.60;;;;;;;8.29;72.22;100661.59;5048047;28;20047;-84
2021/05/24 04:49:57;;;;;;;1.63;0.80;;;;;;;8.37;71.82;100664.19;5028489;28;20072;-85
2021/05/24 04:52:25;;;;;;;0.70;0.70;;;;;;;8.47;71.79;100663.38;5034162;28;20076;-85
2021/05/24 04:54:55;;;;;;;1.65;0.60;;;;;;;8.55;71.40;100663.38;5051107;28;20064;-84
2021/05/24 04:57:21;;;;;;;1.63;0.60;;;;;;;8.63;71.36;100664.25;5036717;28;20556;-85
2021/05/24 04:59:51;;;;;;;1.85;0.70;;;;;;;8.72;71.07;100665.97;5049661;28;20605;-84
2021/05/24 05:02:20;;;;;;;1.33;0.70;;;;;;;8.80;70.71;100656.41;5032402;28;20500;-85
2021/05/24 05:04:46;;;;;;;2.47;0.73;;;;;;;8.88;70.34;100651.16;5065304;28;20047;-85
2021/05/24 05:07:13;;;;;;;1.05;0.77;;;;;;;8.95;70.29;100663.31;5047812;28;20048;-85
2021/05/24 05:09:43;;;;;;;2.72;0.65;;;;;;;9.00;70.42;100664.19;5062937;28;20048;-85
2021/05/24 05:12:20;;;;;;;1.30;0.93;;;;;;;9.07;69.85;100662.41;5067050;28;20518;-85
2021/05/24 05:14:47;;;;;;;0.98;0.52;;;;;;;9.14;69.83;100655.44;5031902;28;20379;-85
2021/05/24 05:17:16;;;;;;;3.30;0.93;;;;;;;9.20;69.49;100661.50;5046505;28;20041;-85
2021/05/24 05:19:44;;;;;;;0.80;0.73;;;;;;;9.28;69.50;100645.81;5054726;28;20041;-85
2021/05/24 05:22:15;;;;;;;2.10;0.40;;;;;;;9.36;69.30;100645.78;5064149;28;20053;-85
2021/05/24 05:24:42;;;;;;;0.55;0.55;;;;;;;9.40;68.94;100648.38;5036979;28;21026;-85
2021/05/24 05:27:09;;;;;;;2.28;1.00;;;;;;;9.45;69.10;100653.56;5061653;28;20052;-84
2021/05/24 05:29:34;;;;;;;0.65;0.55;;;;;;;9.50;68.76;100651.81;5049398;28;20136;-84
2021/05/24 05:32:01;;;;;;;0.90;0.63;;;;;;;9.54;68.81;100656.16;5036275;28;20470;-85
2021/05/24 05:34:28;;;;;;;2.10;0.57;;;;;;;9.60;69.01;100655.25;5033572;28;20054;-85
2021/05/24 05:36:54;;;;;;;0.85;0.40;;;;;;;9.64;68.77;100656.13;5051091;28;20053;-83
2021/05/24 05:39:23;;;;;;;0.50;0.40;;;;;;;9.70;68.94;100651.72;5030106;28;20049;-83
2021/05/24 05:41:49;;;;;;;1.85;1.65;;;;;;;9.76;68.79;100643.84;5050428;28;20140;-83
2021/05/24 05:44:18;;;;;;;1.55;0.75;;;;;;;9.83;68.72;100643.81;5033347;28;20045;-85
2021/05/24 05:46:47;;;;;;;2.20;0.60;;;;;;;9.89;68.58;100633.31;5049755;28;20954;-85
2021/05/24 05:49:14;;;;;;;1.20;0.38;;;;;;;9.93;68.56;100633.28;5053075;28;20064;-84
2021/05/24 05:51:44;;;;;;;1.33;0.50;;;;;;;10.02;68.36;100634.09;5080027;28;20041;-83
2021/05/24 05:54:10;;;;;;;0.93;0.47;;;;;;;10.08;68.23;100640.16;5068777;28;20043;-84
2021/05/24 05:56:37;;;;;;;1.65;0.65;;;;;;;10.17;68.02;100628.75;5030815;28;20033;-84
2021/05/24 05:59:06;;;;;;;1.65;0.98;;;;;;;10.25;67.74;100629.56;5033815;28;20048;-84
2021/05/24 06:01:38;;;;;;;3.80;0.70;;;;;;;10.32;67.54;100627.75;5032980;28;20056;-84
2021/05/24 06:04:05;;;;;;;0.32;0.32;;;;;;;10.37;67.36;100623.38;5035087;28;20045;-83
2021/05/24 06:06:35;;;;;;;2.55;0.70;;;;;;;10.51;67.04;100627.66;5047029;28;20040;-83
2021/05/24 06:09:05;;;;;;;0.93;0.40;;;;;;;10.59;66.57;100617.97;5079861;28;20053;-83
2021/05/24 06:11:33;;;;;;;1.65;0.70;;;;;;;10.66;66.88;100626.63;5032153;28;20041;-83
2021/05/24 06:14:04;;;;;;;1.83;0.70;;;;;;;10.73;66.70;100625.69;5046605;28;20051;-83
2021/05/24 06:16:30;;;;;;;0.68;0.50;;;;;;;10.81;66.24;100634.34;5066373;28;20128;-83
2021/05/24 06:18:56;;;;;;;2.10;0.40;;;;;;;10.91;65.73;100624.59;5060696;28;20124;-82
2021/05/24 06:21:23;;;;;;;0.65;0.40;;;;;;;10.98;65.37;100618.44;5031436;28;20319;-83
2021/05/24 06:23:55;;;;;;;0.57;0.28;;;;;;;11.06;65.18;100613.13;5045852;28;20055;-83
2021/05/24 06:26:23;;;;;;;0.90;0.75;;;;;;;11.13;65.11;100614.75;5049075;28;20132;-82
2021/05/24 06:28:50;;;;;;;0.85;0.52;;;;;;;11.23;64.54;100620.78;5050674;28;20102;-84
2021/05/24 06:31:17;;;;;;;1.35;0.77;;;;;;;11.28;64.26;100612.84;5080511;28;20056;-83
2021/05/24 06:33:44;;;;;;;0.80;0.60;;;;;;;11.34;64.00;100611.03;5034138;28;20056;-83
2021/05/24 06:36:12;;;;;;;0.77;0.43;;;;;;;11.44;63.85;100610.91;5049213;28;20084;-83
2021/05/24 06:38:40;;;;;;;2.65;0.50;;;;;;;11.51;63.44;100613.44;5016513;28;20475;-85
2021/05/24 06:41:08;;;;;;;21.00;14.48;;;;;;;11.56;63.42;100616.84;5030909;28;20141;-85
2021/05/24 06:43:36;;;;;;;2.85;1.02;;;;;;;11.65;63.57;100614.97;5048584;28;20053;-84
2021/05/24 06:46:04;;;;;;;1.80;0.50;;;;;;;11.71;62.64;100618.38;5034251;28;20056;-82
2021/05/24 06:48:30;;;;;;;0.50;0.50;;;;;;;11.79;62.14;100609.56;5046454;28;20037;-83
2021/05/24 06:51:01;;;;;;;5.30;1.35;;;;;;;11.88;62.18;100609.41;5036113;28;20686;-83
2021/05/24 06:53:30;;;;;;;1.45;0.65;;;;;;;11.94;62.08;100604.03;5050255;28;20045;-83
2021/05/24 06:55:56;;;;;;;1.27;0.52;;;;;;;12.03;61.95;100603.06;5012064;28;20480;-83
2021/05/24 06:58:25;;;;;;;1.67;0.52;;;;;;;12.11;61.46;100595.09;5063137;28;20056;-83
2021/05/24 07:00:52;;;;;;;2.53;0.75;;;;;;;12.17;60.92;100610.75;5062568;28;20538;-83
2021/05/24 07:03:19;;;;;;;2.17;0.50;;;;;;;12.23;60.88;100597.53;5067059;28;20075;-85
2021/05/24 07:05:45;;;;;;;0.35;0.35;;;;;;;12.35;60.97;100596.44;5030893;28;20044;-85
2021/05/24 07:08:13;;;;;;;1.10;0.70;;;;;;;12.52;60.47;100596.16;5063941;28;20064;-84
2021/05/24 07:10:41;;;;;;;0.75;0.70;;;;;;;12.68;60.21;100602.84;5050148;28;20041;-83
2021/05/24 07:13:17;;;;;;;1.20;0.40;;;;;;;12.90;59.19;100605.06;5045924;28;20141;-85
2021/05/24 07:15:43;;;;;;;0.95;0.50;;;;;;;13.22;58.78;100596.53;5052634;28;20036;-84
2021/05/24 07:18:10;;;;;;;1.17;0.40;;;;;;;13.74;57.04;100593.72;5064734;28;20468;-86
2021/05/24 07:20:37;;;;;;;0.30;0.30;;;;;;;14.20;55.20;100589.09;5046944;28;20053;-84
2021/05/24 07:23:06;;;;;;;0.90;0.40;;;;;;;14.72;53.94;100582.50;5066022;28;20109;-83
2021/05/24 07:25:33;;;;;;;0.63;0.20;;;;;;;15.34;52.59;100577.22;5030319;28;20055;-85
2021/05/24 07:28:01;;;;;;;0.45;0.20;;;;;;;16.00;51.44;100561.13;5044322;28;20045;-85
2021/05/24 07:30:28;;;;;;;0.40;0.30;;;;;;;16.61;49.38;100570.50;5030463;28;20049;-83
2021/05/24 07:32:54;;;;;;;1.08;0.25;;;;;;;17.05;47.18;100565.41;5065272;28;20073;-84
2021/05/24 07:35:28;;;;;;;1.45;0.32;;;;;;;17.40;46.16;100565.00;5062661;28;20048;-83
2021/05/24 07:37:56;;;;;;;0.52;0.32;;;;;;;17.67;45.16;100552.47;5039123;28;20700;-85
2021/05/24 07:40:23;;;;;;;1.30;0.43;;;;;;;18.11;43.25;100549.81;5064937;28;20077;-83
2021/05/24 07:42:56;;;;;;;3.55;1.80;;;;;;;18.51;42.74;100561.34;5085093;28;20044;-84
2021/05/24 07:45:22;;;;;;;1.15;0.40;;;;;;;18.61;41.76;100531.78;5076820;28;20049;-83
2021/05/24 07:47:56;;;;;;;2.35;0.47;;;;;;;18.92;40.54;100539.25;5030180;28;20049;-84
2021/05/24 07:50:22;;;;;;;;;;;;;;;19.13;40.54;100532.06;5047749;28;20045;-83
2021/05/24 07:52:48;;;;;;;0.70;0.30;;;;;;;19.48;40.52;100539.31;5064511;28;19935;-83
2021/05/24 07:55:29;;;;;;;0.50;0.50;;;;;;;19.84;39.80;100535.81;5050272;28;20041;-83
2021/05/24 07:57:58;;;;;;;0.57;0.30;;;;;;;19.99;37.83;100535.06;5076933;28;20515;-84
2021/05/24 08:00:33;;;;;;;1.42;0.30;;;;;;;20.24;38.48;100538.28;5064331;28;20483;-83
2021/05/24 08:03:10;;;;;;;1.35;0.35;;;;;;;20.48;37.70;100522.81;5066398;28;20151;-84
2021/05/24 08:05:38;;;;;;;0.57;0.10;;;;;;;20.74;37.36;100526.81;5047351;28;20045;-85
2021/05/24 08:08:20;;;;;;;2.05;0.22;;;;;;;21.18;36.32;100524.47;5052442;28;20137;-84
2021/05/24 08:10:47;;;;;;;2.55;0.50;;;;;;;21.53;35.60;100527.81;5035244;28;20045;-83
2021/05/24 08:13:25;;;;;;;2.08;0.77;;;;;;;21.79;34.88;100518.34;5066124;28;20044;-84
2021/05/24 08:15:53;;;;;;;0.65;0.43;;;;;;;22.46;33.94;100509.97;5060845;28;20491;-83
2021/05/24 08:18:20;;;;;;;0.22;0.20;;;;;;;22.79;33.27;100510.66;5051077;28;20752;-84
2021/05/24 08:21:01;;;;;;;0.60;0.20;;;;;;;23.03;31.84;100510.91;5032899;28;20056;-85
2021/05/24 08:23:28;;;;;;;0.65;0.40;;;;;;;23.52;31.96;100503.38;5068542;28;20072;-83
2021/05/24 08:25:55;;;;;;;0.80;0.20;;;;;;;23.95;31.29;100501.41;5064136;28;20076;-84
2021/05/24 08:28:23;;;;;;;0.38;0.30;;;;;;;23.97;30.35;100498.63;5030572;28;20080;-84
2021/05/24 08:31:05;;;;;;;0.20;0.17;;;;;;;24.28;29.82;100492.00;5048092;28;20037;-83
2021/05/24 08:33:32;;;;;;;1.55;0.35;;;;;;;24.66;29.46;100486.81;5034500;28;20051;-84
2021/05/24 08:36:02;;;;;;;0.35;0.20;;;;;;;24.91;28.87;100485.91;5067450;28;20044;-83
2021/05/24 08:38:30;;;;;;;0.73;0.20;;;;;;;25.46;28.47;100483.72;5030266;28;20059;-83
2021/05/24 08:41:05;;;;;;;0.77;0.20;;;;;;;25.68;26.72;100479.41;5040923;28;20033;-85
2021/05/24 08:43:39;;;;;;;1.40;0.25;;;;;;;25.37;26.71;100477.22;5044670;28;20045;-84
2021/05/24 08:46:15;;;;;;;2.95;0.20;;;;;;;25.36;26.64;100483.53;5068174;28;20047;-82
2021/05/24 08:49:31;;;;;;;1.48;0.35;;;;;;;25.49;26.42;100469.22;5036459;28;20059;-85
2021/05/24 08:52:08;;;;;;;2.35;0.40;;;;;;;25.53;26.17;100473.41;5060349;28;20036;-85
2021/05/24 08:54:50;;;;;;;3.08;0.20;;;;;;;26.21;26.45;100468.25;5061446;28;20091;-83
2021/05/24 08:57:24;;;;;;;;;;;;;;;26.76;25.51;100455.00;5044909;28;20196;-83
2021/05/24 08:59:55;;;;;;;0.60;0.30;;;;;;;27.14;24.33;100453.69;5072958;28;19924;-84
2021/05/24 09:02:27;;;;;;;0.88;0.20;;;;;;;26.70;24.91;100459.00;5042554;28;20044;-84
2021/05/24 09:05:09;;;;;;;0.85;0.20;;;;;;;26.83;24.24;100444.59;5083812;28;20514;-82
2021/05/24 09:08:27;;;;;;;1.85;0.50;;;;;;;26.63;24.50;100449.72;5088543;28;20048;-85
2021/05/24 09:11:29;;;;;;;0.45;0.30;;;;;;;26.97;24.04;100441.66;5075348;28;20498;-84
2021/05/24 09:14:00;;;;;;;0.80;0.20;;;;;;;27.88;23.67;100436.78;5067164;28;20048;-83
2021/05/24 09:16:34;;;;;;;2.58;0.32;;;;;;;28.46;22.92;100434.59;5040335;28;20037;-85
2021/05/24 09:19:18;;;;;;;0.63;0.40;;;;;;;28.51;21.57;100433.22;5070904;28;20118;-83
2021/05/24 09:21:59;;;;;;;1.67;0.20;;;;;;;28.73;22.11;100436.69;5069405;28;20072;-84
2021/05/24 09:24:38;;;;;;;0.75;0.30;;;;;;;29.30;21.31;100436.13;5057709;28;20110;-83
2021/05/24 09:27:38;;;;;;;0.88;0.20;;;;;;;29.41;20.86;100440.53;5059611;28;20036;-82
2021/05/24 09:30:07;;;;;;;0.20;0.10;;;;;;;29.28;20.79;100433.59;5078705;28;20045;-83
2021/05/24 09:32:38;;;;;;;0.22;0.20;;;;;;;29.11;20.60;100429.72;5055478;28;20049;-83
2021/05/24 09:35:08;;;;;;;0.50;0.30;;;;;;;29.18;21.16;100428.13;5049357;28;20028;-83
2021/05/24 09:37:40;;;;;;;1.15;0.47;;;;;;;29.25;20.91;100406.03;5083958;28;20045;-83
2021/05/24 09:43:17;;;;;;;1.65;0.28;;;;;;;30.92;19.45;100404.56;5048672;28;20052;-84
2021/05/24 09:45:49;;;;;;;0.57;0.30;;;;;;;31.06;19.03;100400.53;5033783;28;20049;-84
2021/05/24 09:48:15;;;;;;;0.93;0.32;;;;;;;30.39;19.71;100392.63;5049238;28;20109;-84
2021/05/24 09:50:41;;;;;;;1.15;0.40;;;;;;;30.66;19.76;100410.72;5071316;28;20121;-84
2021/05/24 09:53:09;;;;;;;0.52;0.30;;;;;;;30.94;19.34;100399.88;5049509;28;20052;-84
2021/05/24 09:55:38;;;;;;;0.68;0.20;;;;;;;30.60;19.57;100397.81;5035308;28;20499;-84
2021/05/24 09:58:06;;;;;;;1.05;0.47;;;;;;;30.35;20.07;100391.22;5033089;28;20044;-84
2021/05/24 10:00:44;;;;;;;1.15;0.30;;;;;;;31.61;18.84;100391.41;5034005;28;20148;-85
2021/05/24 10:03:12;;;;;;;0.60;0.20;;;;;;;31.34;18.73;100385.09;5042010;28;20048;-83
2021/05/24 10:05:51;;;;;;;0.70;0.20;;;;;;;29.95;19.63;100387.81;5031976;28;20557;-85
2021/05/24 10:08:20;;;;;;;0.73;0.38;;;;;;;29.02;20.97;100385.59;5055165;28;20059;-85
2021/05/24 10:10:47;;;;;;;1.50;0.30;;;;;;;28.53;20.99;100371.13;5057189;28;20133;-84
2021/05/24 10:13:27;;;;;;;0.30;0.30;;;;;;;28.32;21.55;100372.06;5047955;28;20052;-84
2021/05/24 10:16:00;;;;;;;0.65;0.35;;;;;;;29.42;20.58;100372.13;5065240;28;20052;-85
2021/05/24 10:18:29;;;;;;;1.63;0.20;;;;;;;30.56;19.87;100373.94;5047784;28;20048;-84
2021/05/24 10:21:01;;;;;;;1.33;0.40;;;;;;;31.37;19.27;100367.69;5048382;28;20388;-84
2021/05/24 10:23:30;;;;;;;1.67;0.20;;;;;;;32.13;18.52;100368.03;5048738;28;20293;-84
2021/05/24 10:26:02;;;;;;;0.40;0.10;;;;;;;32.62;17.75;100354.72;5046882;28;20132;-84
2021/05/24 10:28:31;;;;;;;0.30;0.25;;;;;;;32.45;17.89;100347.53;5047679;28;20037;-85
2021/05/24 10:31:01;;;;;;;0.30;0.30;;;;;;;30.90;19.38;100340.88;5048929;28;20132;-85
2021/05/24 10:33:43;;;;;;;0.73;0.20;;;;;;;28.77;21.11;100341.16;5078016;28;20407;-84
2021/05/24 10:36:18;;;;;;;0.52;0.20;;;;;;;27.21;22.87;100344.75;5049390;28;20515;-83
2021/05/24 10:39:02;;;;;;;1.75;0.30;;;;;;;25.91;24.16;100352.47;5049534;28;20129;-86
2021/05/24 10:42:09;;;;;;;1.38;0.30;;;;;;;25.97;23.64;100342.25;5067670;28;20045;-85
2021/05/24 10:44:45;;;;;;;0.95;0.10;;;;;;;27.86;21.45;100327.63;4975462;28;20084;-86
2021/05/24 10:47:24;;;;;;;0.25;0.22;;;;;;;29.72;19.88;100321.69;4972355;28;20030;-85
2021/05/24 10:50:08;;;;;;;0.70;0.30;;;;;;;31.40;17.80;100321.38;5041853;28;20079;-83
2021/05/24 10:52:39;;;;;;;0.88;0.50;;;;;;;32.51;16.57;100305.41;5051445;28;20070;-84
2021/05/24 10:55:27;;;;;;;0.38;0.17;;;;;;;32.35;16.79;100298.94;5065948;28;20048;-84
2021/05/24 10:58:18;;;;;;;0.63;0.30;;;;;;;31.58;17.54;100297.00;5049564;28;20144;-84
2021/05/24 11:01:34;;;;;;;1.83;0.35;;;;;;;29.97;18.27;100295.91;5054202;28;20040;-85
2021/05/24 11:04:18;;;;;;;1.05;0.30;;;;;;;29.47;19.15;100297.88;5064431;28;20040;-84
2021/05/24 11:07:26;;;;;;;0.38;0.32;;;;;;;28.32;20.15;100291.31;5047529;28;20055;-83
2021/05/24 11:10:17;;;;;;;0.20;0.20;;;;;;;26.87;22.03;100277.75;5049632;28;20409;-84
2021/05/24 11:13:17;;;;;;;0.90;0.30;;;;;;;25.93;23.33;100277.28;5066181;28;20047;-83
2021/05/24 11:15:46;;;;;;;0.95;0.20;;;;;;;25.33;23.98;100285.47;5050888;28;20135;-83
2021/05/24 11:18:19;;;;;;;0.43;0.20;;;;;;;26.66;22.82;100269.63;5049830;28;20056;-84
2021/05/24 11:21:01;;;;;;;0.35;0.10;;;;;;;27.03;22.34;100273.75;5066437;28;20045;-83
2021/05/24 11:23:41;;;;;;;0.88;0.10;;;;;;;26.92;22.67;100266.59;5076985;28;20076;-82
2021/05/24 11:26:13;;;;;;;0.30;0.30;;;;;;;26.29;23.31;100261.91;5062356;28;20067;-85
2021/05/24 11:29:18;;;;;;;1.00;0.20;;;;;;;25.77;23.08;100253.50;5061953;28;20132;-84
2021/05/24 11:31:52;;;;;;;0.10;0.10;;;;;;;25.85;23.32;100243.03;5047642;28;20052;-84
2021/05/24 11:34:35;;;;;;;1.00;0.30;;;;;;;27.35;21.57;100238.78;5066476;28;20093;-84
2021/05/24 11:37:11;;;;;;;0.43;0.20;;;;;;;27.00;21.86;100245.31;5075677;28;20534;-83
2021/05/24 11:39:54;;;;;;;2.38;0.22;;;;;;;27.81;21.20;100224.97;5046729;28;20048;-83
2021/05/24 11:42:29;;;;;;;0.45;0.30;;;;;;;30.08;18.61;100225.53;5063226;28;20136;-83
2021/05/24 11:45:00;;;;;;;0.77;0.40;;;;;;;30.95;17.66;100233.13;5077296;28;20071;-83
2021/05/24 11:47:57;;;;;;;0.47;0.47;;;;;;;31.36;17.70;100219.09;5049606;28;20047;-84
2021/05/24 11:50:30;;;;;;;0.10;0.10;;;;;;;33.03;16.61;100212.13;5064408;28;20061;-84
2021/05/24 11:52:58;;;;;;;0.30;0.20;;;;;;;34.04;15.25;100202.50;5052735;28;20025;-84
2021/05/24 11:55:25;;;;;;;0.95;0.20;;;;;;;32.38;16.02;100208.38;5060948;28;20707;-84